createdAt,value
2022-11-18T00:01:22.492Z,82.44
2022-11-18T00:03:51.605Z,81.94
2022-11-18T00:06:21.931Z,82.58
2022-11-18T00:08:50.442Z,82.17
2022-11-18T00:11:40.035Z,82.62
2022-11-18T00:14:19.471Z,82.32
2022-11-18T00:16:54.984Z,84.57
2022-11-18T00:19:34.506Z,83.62
2022-11-18T00:22:03.327Z,82.93
2022-11-18T00:24:31.743Z,82.72
2022-11-18T00:26:59.616Z,82.98
2022-11-18T00:29:28.490Z,83.11
2022-11-18T00:31:57.411Z,83.10
2022-11-18T00:34:26.091Z,82.88
2022-11-18T00:36:53.827Z,82.34
2022-11-18T00:39:22.063Z,83.03
2022-11-18T00:42:08.477Z,81.88
2022-11-18T00:44:37.021Z,82.72
2022-11-18T00:47:05.274Z,81.80
2022-11-18T00:49:33.161Z,81.57
2022-11-18T00:52:01.340Z,81.89
2022-11-18T00:54:29.260Z,82.08
2022-11-18T00:56:56.968Z,82.24
2022-11-18T00:59:24.809Z,82.63
2022-11-18T01:01:52.651Z,82.71
2022-11-18T01:04:20.487Z,82.29
2022-11-18T01:06:48.411Z,83.17
2022-11-18T01:09:16.495Z,82.69
2022-11-18T01:12:02.910Z,82.44
2022-11-18T01:14:30.823Z,82.34
2022-11-18T01:16:58.624Z,82.32
2022-11-18T01:19:26.479Z,82.05
2022-11-18T01:21:56.454Z,81.62
2022-11-18T01:24:24.167Z,81.76
2022-11-18T01:26:51.934Z,81.39
2022-11-18T01:29:20.015Z,81.44
2022-11-18T01:32:16.890Z,82.06
2022-11-18T01:34:35.832Z,82.63
2022-11-18T01:37:03.703Z,82.79
2022-11-18T01:39:31.843Z,83.04
2022-11-18T01:41:59.669Z,82.44
2022-11-18T01:45:02.353Z,82.20
2022-11-18T01:47:35.635Z,82.34
2022-11-18T01:50:05.201Z,82.04
2022-11-18T01:52:35.048Z,82.08
2022-11-18T01:55:06.188Z,81.64
2022-11-18T01:57:34.416Z,81.84
2022-11-18T02:00:04.876Z,81.77
2022-11-18T02:02:37.722Z,81.76
2022-11-18T02:05:08.361Z,81.80
2022-11-18T02:07:43.360Z,81.62
2022-11-18T02:10:20.991Z,81.99
2022-11-18T02:12:51.024Z,82.21
2022-11-18T02:15:44.476Z,82.51
2022-11-18T02:18:30.967Z,82.46
2022-11-18T02:21:28.413Z,82.09
2022-11-18T02:24:25.009Z,81.58
2022-11-18T02:27:33.403Z,81.46
2022-11-18T02:30:08.769Z,81.23
2022-11-18T02:32:51.706Z,80.76
2022-11-18T02:35:28.165Z,80.85
2022-11-18T02:38:04.978Z,81.01
2022-11-18T02:40:37.062Z,80.57
2022-11-18T02:43:08.853Z,80.49
2022-11-18T02:45:42.271Z,80.40
2022-11-18T02:48:13.232Z,80.61
2022-11-18T02:50:43.591Z,81.13
2022-11-18T02:53:14.976Z,81.17
2022-11-18T02:55:44.377Z,81.33
2022-11-18T02:58:14.496Z,81.23
2022-11-18T03:00:42.279Z,81.07
2022-11-18T03:03:30.082Z,80.92
2022-11-18T03:06:04.621Z,81.05
2022-11-18T03:08:39.773Z,80.32
2022-11-18T03:11:20.967Z,80.37
2022-11-18T03:14:16.073Z,80.09
2022-11-18T03:17:00.660Z,80.03
2022-11-18T03:19:53.193Z,80.19
2022-11-18T03:22:23.903Z,80.04
2022-11-18T03:25:06.017Z,80.18
2022-11-18T03:27:41.297Z,80.14
2022-11-18T03:30:13.525Z,80.02
2022-11-18T03:32:45.742Z,80.03
2022-11-18T03:35:19.899Z,80.60
2022-11-18T03:37:52.350Z,80.55
2022-11-18T03:40:29.758Z,80.84
2022-11-18T03:43:09.956Z,80.61
2022-11-18T03:45:46.228Z,80.61
2022-11-18T03:48:20.221Z,80.44
2022-11-18T03:51:11.357Z,79.96
2022-11-18T03:53:47.905Z,80.26
2022-11-18T03:56:28.429Z,80.13
2022-11-18T03:58:59.487Z,80.29
2022-11-18T04:01:42.618Z,80.33
2022-11-18T04:04:11.656Z,80.64
2022-11-18T04:06:46.742Z,80.95
2022-11-18T04:09:23.901Z,81.02
2022-11-18T04:12:03.450Z,81.22
2022-11-18T04:14:38.596Z,81.32
2022-11-18T04:17:19.879Z,81.52
2022-11-18T04:19:48.062Z,81.28
2022-11-18T04:22:17.886Z,81.17
2022-11-18T04:24:46.154Z,81.47
2022-11-18T04:27:14.075Z,81.28
2022-11-18T04:29:41.765Z,81.47
2022-11-18T04:32:09.516Z,81.58
2022-11-18T04:34:37.324Z,81.44
2022-11-18T04:37:05.137Z,81.64
2022-11-18T04:39:32.947Z,81.84
2022-11-18T04:42:00.712Z,81.85
2022-11-18T04:44:30.931Z,82.22
2022-11-18T04:47:01.223Z,82.04
2022-11-18T04:49:29.698Z,82.14
2022-11-18T04:51:57.828Z,82.45
2022-11-18T04:54:26.949Z,82.50
2022-11-18T04:56:55.366Z,82.35
2022-11-18T04:59:29.458Z,82.38
2022-11-18T05:01:58.445Z,82.24
2022-11-18T05:04:30.091Z,82.15
2022-11-18T05:06:59.001Z,82.27
2022-11-18T05:09:31.829Z,82.28
2022-11-18T05:12:19.813Z,82.43
2022-11-18T05:14:50.359Z,82.21
2022-11-18T05:17:19.252Z,82.21
2022-11-18T05:19:47.149Z,82.48
2022-11-18T05:22:15.661Z,82.99
2022-11-18T05:24:43.475Z,83.35
2022-11-18T05:27:12.681Z,82.93
2022-11-18T05:29:41.433Z,82.91
2022-11-18T05:32:09.267Z,82.94
2022-11-18T05:34:37.176Z,82.97
2022-11-18T05:37:04.955Z,83.62
2022-11-18T05:39:33.892Z,83.22
2022-11-18T05:42:23.111Z,83.35
2022-11-18T05:44:57.833Z,83.58
2022-11-18T05:47:27.081Z,83.82
2022-11-18T05:49:54.899Z,83.96
2022-11-18T05:52:22.657Z,83.75
2022-11-18T05:54:51.596Z,83.40
2022-11-18T05:57:19.411Z,83.21
2022-11-18T05:59:47.355Z,82.99
2022-11-18T06:02:22.281Z,82.99
2022-11-18T06:05:02.871Z,83.04
2022-11-18T06:07:43.031Z,83.01
2022-11-18T06:10:18.201Z,83.36
2022-11-18T06:12:49.342Z,83.42
2022-11-18T06:15:27.277Z,83.74
2022-11-18T06:18:07.195Z,83.31
2022-11-18T06:20:38.144Z,83.08
2022-11-18T06:23:06.211Z,83.08
2022-11-18T06:25:37.678Z,83.13
2022-11-18T06:28:05.566Z,82.89
2022-11-18T06:30:33.340Z,82.85
2022-11-18T06:33:01.075Z,83.08
2022-11-18T06:35:28.793Z,83.26
2022-11-18T06:37:57.255Z,83.67
2022-11-18T06:40:24.992Z,83.93
2022-11-18T06:43:11.236Z,83.72
2022-11-18T06:45:39.027Z,83.47
2022-11-18T06:48:07.202Z,83.09
2022-11-18T06:50:35.072Z,82.60
2022-11-18T06:53:02.838Z,82.83
2022-11-18T06:55:31.073Z,82.92
2022-11-18T06:57:58.866Z,82.84
2022-11-18T07:00:26.669Z,83.14
2022-11-18T07:02:54.417Z,83.13
2022-11-18T07:05:22.168Z,83.37
2022-11-18T07:07:50.071Z,83.52
2022-11-18T07:10:17.868Z,83.20
2022-11-18T07:12:45.750Z,83.19
2022-11-18T07:15:14.454Z,83.16
2022-11-18T07:17:42.227Z,82.88
2022-11-18T07:20:10.535Z,82.72
2022-11-18T07:22:38.341Z,82.39
2022-11-18T07:25:06.274Z,82.45
2022-11-18T07:27:34.041Z,82.53
2022-11-18T07:30:01.767Z,82.32
2022-11-18T07:32:29.554Z,82.16
2022-11-18T07:34:57.304Z,82.29
2022-11-18T07:37:25.148Z,82.28
2022-11-18T07:39:53.113Z,82.74
2022-11-18T07:42:20.949Z,83.23
2022-11-18T07:44:48.702Z,83.42
2022-11-18T07:47:16.513Z,82.83
2022-11-18T07:49:44.385Z,82.73
2022-11-18T07:52:12.114Z,82.43
2022-11-18T07:54:39.994Z,82.17
2022-11-18T07:57:08.029Z,81.85
2022-11-18T07:59:35.887Z,81.64
2022-11-18T08:02:03.739Z,81.58
2022-11-18T08:04:31.867Z,81.62
2022-11-18T08:06:59.641Z,81.53
2022-11-18T08:09:27.382Z,81.44
2022-11-18T08:11:55.106Z,81.03
2022-11-18T08:14:24.230Z,81.49
2022-11-18T08:16:52.027Z,81.44
2022-11-18T08:19:20.115Z,82.00
2022-11-18T08:21:48.124Z,82.08
2022-11-18T08:24:15.974Z,82.30
2022-11-18T08:26:43.715Z,82.73
2022-11-18T08:29:11.533Z,82.89
2022-11-18T08:31:39.340Z,82.40
2022-11-18T08:34:07.932Z,82.28
2022-11-18T08:36:38.093Z,82.08
2022-11-18T08:39:08.952Z,81.92
2022-11-18T08:41:38.390Z,81.80
2022-11-18T08:44:08.174Z,81.81
2022-11-18T08:46:35.955Z,81.78
2022-11-18T08:49:04.125Z,81.71
2022-11-18T08:51:32.077Z,81.67
2022-11-18T08:53:59.988Z,81.63
2022-11-18T08:56:28.017Z,81.89
2022-11-18T08:58:56.564Z,81.75
2022-11-18T09:01:24.372Z,81.98
2022-11-18T09:03:52.705Z,82.17
2022-11-18T09:06:24.303Z,82.22
2022-11-18T09:08:52.958Z,82.23
2022-11-18T09:11:24.023Z,82.01
2022-11-18T09:16:44.356Z,81.09
2022-11-18T09:19:40.194Z,81.08
2022-11-18T09:21:59.953Z,80.61
2022-11-18T09:24:28.212Z,80.50
2022-11-18T09:26:55.956Z,80.36
2022-11-18T09:29:26.225Z,80.56
2022-11-18T09:31:54.678Z,80.26
2022-11-18T09:34:23.332Z,80.37
2022-11-18T09:36:51.477Z,80.43
2022-11-18T09:39:19.567Z,80.24
2022-11-18T09:41:48.510Z,79.82
2022-11-18T09:44:31.390Z,79.70
2022-11-18T09:47:11.922Z,78.89
2022-11-18T09:49:42.453Z,79.23
2022-11-18T09:52:12.883Z,78.92
2022-11-18T09:54:40.865Z,78.90
2022-11-18T09:57:21.210Z,79.29
2022-11-18T09:59:49.001Z,79.19
2022-11-18T10:02:28.026Z,79.16
2022-11-18T10:05:01.637Z,78.35
2022-11-18T10:07:45.099Z,78.43
2022-11-18T10:10:19.723Z,78.54
2022-11-18T10:12:55.673Z,78.25
2022-11-18T10:15:32.960Z,77.35
2022-11-18T10:18:59.272Z,77.96
2022-11-18T10:21:45.519Z,76.89
2022-11-18T10:24:18.997Z,77.01
2022-11-18T10:26:47.234Z,76.48
2022-11-18T10:29:14.943Z,76.84
2022-11-18T10:32:16.438Z,76.71
2022-11-18T10:34:56.041Z,76.48
2022-11-18T10:38:05.771Z,76.69
2022-11-18T10:40:25.719Z,76.41
2022-11-18T10:42:54.265Z,76.48
2022-11-18T10:45:26.910Z,75.91
2022-11-18T10:48:21.018Z,76.11
2022-11-18T10:50:55.035Z,75.42
2022-11-18T10:53:35.106Z,75.51
2022-11-18T10:56:08.459Z,75.20
2022-11-18T10:58:42.227Z,75.36
2022-11-18T11:01:27.201Z,75.90
2022-11-18T11:04:01.296Z,75.37
2022-11-18T11:06:38.117Z,75.48
2022-11-18T11:09:25.318Z,74.71
2022-11-18T11:11:57.709Z,74.61
2022-11-18T11:14:47.117Z,75.02
2022-11-18T11:17:29.988Z,74.05
2022-11-18T11:20:04.276Z,73.71
2022-11-18T11:22:32.117Z,74.20
2022-11-18T11:24:59.779Z,74.64
2022-11-18T11:30:38.753Z,74.26
2022-11-18T11:33:36.800Z,74.45
2022-11-18T11:36:41.138Z,74.36
2022-11-18T11:39:34.939Z,74.35
2022-11-18T11:42:28.620Z,74.42
2022-11-18T11:44:56.227Z,73.97
2022-11-18T11:47:50.079Z,73.75
2022-11-18T11:51:03.859Z,73.38
2022-11-18T11:54:04.352Z,72.55
2022-11-18T11:56:41.034Z,72.81
2022-11-18T11:59:19.725Z,72.65
2022-11-18T12:02:09.373Z,72.11
2022-11-18T12:04:50.008Z,72.13
2022-11-18T12:07:23.935Z,72.26
2022-11-18T12:10:16.266Z,72.55
2022-11-18T12:13:08.738Z,72.54
2022-11-18T12:15:45.620Z,72.78
2022-11-18T12:18:42.423Z,73.28
2022-11-18T12:21:45.545Z,73.70
2022-11-18T12:24:32.929Z,73.55
2022-11-18T12:27:13.449Z,72.60
2022-11-18T12:30:03.749Z,72.64
2022-11-18T12:32:42.848Z,72.57
2022-11-18T12:35:13.805Z,72.17
2022-11-18T12:37:57.580Z,73.01
2022-11-18T12:40:39.187Z,72.77
2022-11-18T12:43:47.556Z,72.76
2022-11-18T12:46:40.116Z,73.24
2022-11-18T12:49:21.104Z,73.18
2022-11-18T12:51:49.786Z,72.42
2022-11-18T12:54:26.240Z,72.79
2022-11-18T12:56:55.854Z,72.78
2022-11-18T12:59:33.013Z,72.15
2022-11-18T13:02:05.809Z,72.99
2022-11-18T13:04:33.676Z,72.31
2022-11-18T13:07:03.119Z,72.91
2022-11-18T13:09:34.260Z,73.23
2022-11-18T13:12:08.713Z,72.54
2022-11-18T13:14:59.539Z,71.50
2022-11-18T13:18:06.055Z,71.95
2022-11-18T13:20:36.128Z,71.53
2022-11-18T13:23:28.642Z,70.70
2022-11-18T13:26:27.112Z,70.90
2022-11-18T13:29:32.109Z,70.59
2022-11-18T13:32:18.379Z,70.90
2022-11-18T13:34:52.378Z,70.74
2022-11-18T13:37:24.417Z,71.17
2022-11-18T13:39:53.105Z,70.75
2022-11-18T13:42:29.661Z,71.56
2022-11-18T13:44:59.425Z,71.35
2022-11-18T13:47:40.489Z,71.45
2022-11-18T13:50:11.237Z,71.85
2022-11-18T13:52:48.265Z,72.09
2022-11-18T13:55:22.694Z,72.22
2022-11-18T13:58:00.618Z,71.95
2022-11-18T14:00:30.580Z,72.09
2022-11-18T14:03:02.372Z,71.43
2022-11-18T14:05:30.429Z,71.82
2022-11-18T14:08:05.279Z,71.73
2022-11-18T14:10:42.802Z,71.80
2022-11-18T14:13:17.427Z,71.80
2022-11-18T14:15:45.484Z,71.54
2022-11-18T14:18:28.377Z,71.90
2022-11-18T14:20:56.245Z,72.03
2022-11-18T14:23:33.750Z,72.17
2022-11-18T14:26:04.599Z,72.10
2022-11-18T14:28:36.700Z,72.05
2022-11-18T14:31:24.353Z,72.51
2022-11-18T14:34:26.881Z,73.04
2022-11-18T14:36:55.824Z,73.50
2022-11-18T14:39:32.051Z,73.71
2022-11-18T14:42:00.218Z,73.97
2022-11-18T14:44:28.614Z,73.30
2022-11-18T14:47:03.075Z,73.41
2022-11-18T14:49:32.700Z,73.57
2022-11-18T14:52:04.554Z,73.56
2022-11-18T14:54:32.487Z,73.81
2022-11-18T14:57:03.040Z,74.48
2022-11-18T14:59:31.408Z,74.48
2022-11-18T15:01:59.484Z,74.76
2022-11-18T15:04:27.785Z,74.80
2022-11-18T15:06:56.322Z,75.18
2022-11-18T15:09:24.674Z,75.48
2022-11-18T15:11:52.347Z,75.72
2022-11-18T15:14:20.620Z,76.28
2022-11-18T15:16:48.737Z,76.66
2022-11-18T15:19:16.760Z,76.35
2022-11-18T15:21:45.525Z,75.88
2022-11-18T15:24:13.797Z,75.57
2022-11-18T15:26:44.665Z,75.57
2022-11-18T15:29:21.120Z,75.31
2022-11-18T15:31:49.293Z,75.48
2022-11-18T15:34:20.056Z,75.29
2022-11-18T15:36:48.424Z,75.52
2022-11-18T15:39:16.068Z,75.33
2022-11-18T15:41:44.541Z,75.73
2022-11-18T15:44:12.422Z,75.71
2022-11-18T15:46:40.319Z,76.26
2022-11-18T15:49:13.557Z,75.99
2022-11-18T15:51:41.537Z,76.03
2022-11-18T15:54:09.290Z,75.96
2022-11-18T15:56:37.876Z,76.57
2022-11-18T15:59:17.132Z,76.87
2022-11-18T16:01:48.901Z,76.95
2022-11-18T16:04:19.381Z,76.99
2022-11-18T16:06:47.402Z,76.95
2022-11-18T16:09:17.256Z,76.58
2022-11-18T16:12:03.601Z,76.72
2022-11-18T16:14:31.382Z,76.83
2022-11-18T16:16:59.240Z,76.76
2022-11-18T16:19:27.253Z,77.10
2022-11-18T16:21:57.217Z,77.38
2022-11-18T16:24:28.550Z,77.56
2022-11-18T16:26:57.031Z,77.76
2022-11-18T16:29:25.166Z,78.49
2022-11-18T16:31:54.453Z,78.26
2022-11-18T16:34:25.128Z,77.69
2022-11-18T16:36:55.944Z,77.12
2022-11-18T16:39:26.098Z,76.67
2022-11-18T16:42:06.893Z,76.54
2022-11-18T16:44:36.044Z,76.68
2022-11-18T16:47:07.721Z,76.53
2022-11-18T16:49:40.334Z,76.66
2022-11-18T16:52:08.816Z,76.67
2022-11-18T16:54:42.892Z,76.76
2022-11-18T16:57:13.354Z,77.15
2022-11-18T16:59:41.090Z,78.16
2022-11-18T17:02:12.398Z,78.29
2022-11-18T17:04:40.241Z,78.70
2022-11-18T17:07:08.190Z,78.88
2022-11-18T17:09:36.120Z,79.07
2022-11-18T17:12:04.301Z,78.88
2022-11-18T17:14:32.014Z,79.03
2022-11-18T17:16:59.983Z,79.38
2022-11-18T17:19:27.748Z,79.37
2022-11-18T17:21:55.606Z,79.19
2022-11-18T17:24:24.070Z,79.46
2022-11-18T17:26:52.211Z,79.47
2022-11-18T17:29:20.678Z,80.30
2022-11-18T17:31:49.347Z,80.15
2022-11-18T17:34:17.544Z,80.21
2022-11-18T17:36:45.748Z,80.35
2022-11-18T17:39:13.619Z,80.19
2022-11-18T17:42:00.038Z,79.96
2022-11-18T17:44:29.493Z,79.92
2022-11-18T17:46:57.280Z,79.66
2022-11-18T17:49:25.032Z,79.57
2022-11-18T17:51:52.735Z,79.53
2022-11-18T17:54:21.593Z,79.26
2022-11-18T17:56:52.231Z,79.56
2022-11-18T17:59:21.143Z,79.75
2022-11-18T18:01:54.370Z,80.03
2022-11-18T18:04:26.836Z,79.99
2022-11-18T18:06:55.116Z,79.77
2022-11-18T18:09:26.971Z,79.46
2022-11-18T18:11:59.857Z,79.26
2022-11-18T18:14:28.943Z,79.04
2022-11-18T18:16:56.597Z,78.85
2022-11-18T18:19:24.686Z,78.89
2022-11-18T18:21:53.397Z,78.68
2022-11-18T18:24:21.966Z,78.58
2022-11-18T18:26:50.028Z,78.74
2022-11-18T18:29:17.736Z,78.68
2022-11-18T18:31:45.419Z,78.79
2022-11-18T18:34:13.233Z,78.74
2022-11-18T18:36:43.216Z,78.74
2022-11-18T18:39:11.106Z,78.98
2022-11-18T18:41:38.828Z,79.55
2022-11-18T18:44:06.607Z,79.79
2022-11-18T18:46:36.892Z,80.36
2022-11-18T18:49:08.061Z,79.58
2022-11-18T18:51:37.260Z,79.00
2022-11-18T18:54:07.329Z,78.69
2022-11-18T18:56:35.031Z,78.50
2022-11-18T18:59:03.143Z,78.18
2022-11-18T19:01:31.745Z,78.24
2022-11-18T19:04:02.108Z,78.42
2022-11-18T19:09:26.018Z,78.48
2022-11-18T19:12:14.714Z,78.45
2022-11-18T19:14:42.506Z,78.46
2022-11-18T19:17:12.347Z,78.38
2022-11-18T19:20:00.894Z,78.25
2022-11-18T19:22:30.983Z,78.68
2022-11-18T19:24:59.771Z,78.88
2022-11-18T19:27:28.569Z,78.86
2022-11-18T19:29:56.252Z,78.85
2022-11-18T19:32:24.030Z,78.20
2022-11-18T19:34:51.794Z,78.27
2022-11-18T19:37:19.580Z,77.82
2022-11-18T19:39:47.274Z,78.04
2022-11-18T19:42:16.625Z,78.00
2022-11-18T19:44:47.317Z,77.84
2022-11-18T19:47:15.237Z,77.35
2022-11-18T19:49:43.009Z,77.20
2022-11-18T19:52:11.079Z,77.26
2022-11-18T19:54:42.083Z,77.38
2022-11-18T19:57:09.804Z,77.34
2022-11-18T19:59:37.795Z,77.64
2022-11-18T20:02:06.353Z,78.07
2022-11-18T20:04:34.083Z,77.84
2022-11-18T20:07:01.800Z,77.53
2022-11-18T20:09:30.245Z,77.25
2022-11-18T20:11:58.024Z,77.31
2022-11-18T20:14:25.742Z,76.92
2022-11-18T20:16:53.385Z,76.83
2022-11-18T20:19:21.556Z,77.06
2022-11-18T20:21:49.543Z,76.99
2022-11-18T20:24:19.285Z,76.58
2022-11-18T20:26:47.453Z,76.54
2022-11-18T20:29:15.206Z,76.89
2022-11-18T20:31:42.903Z,76.26
2022-11-18T20:34:14.478Z,76.39
2022-11-18T20:36:43.014Z,76.42
2022-11-18T20:39:14.628Z,76.61
2022-11-18T20:41:43.656Z,76.88
2022-11-18T20:44:12.418Z,76.66
2022-11-18T20:46:40.237Z,76.65
2022-11-18T20:49:07.995Z,76.26
2022-11-18T20:51:35.807Z,75.49
2022-11-18T20:54:08.180Z,75.63
2022-11-18T20:56:35.847Z,75.55
2022-11-18T20:59:03.534Z,75.13
2022-11-18T21:01:32.617Z,75.01
2022-11-18T21:04:01.832Z,74.64
2022-11-18T21:06:31.483Z,74.94
2022-11-18T21:09:02.658Z,75.09
2022-11-18T21:11:34.883Z,75.20
2022-11-18T21:14:24.047Z,75.10
2022-11-18T21:16:55.454Z,75.32
2022-11-18T21:19:24.001Z,75.69
2022-11-18T21:21:52.885Z,75.61
2022-11-18T21:24:29.419Z,75.65
2022-11-18T21:26:58.324Z,76.12
2022-11-18T21:29:28.237Z,75.95
2022-11-18T21:31:57.868Z,76.20
2022-11-18T21:34:25.650Z,75.73
2022-11-18T21:36:55.112Z,75.93
2022-11-18T21:39:24.384Z,75.45
2022-11-18T21:41:56.120Z,75.44
2022-11-18T21:44:27.939Z,75.05
2022-11-18T21:46:57.142Z,74.84
2022-11-18T21:49:24.858Z,75.17
2022-11-18T21:51:52.626Z,74.87
2022-11-18T21:54:20.378Z,74.97
2022-11-18T21:56:48.154Z,74.54
2022-11-18T21:59:15.980Z,74.54
2022-11-18T22:01:43.749Z,74.38
2022-11-18T22:04:31.408Z,74.24
2022-11-18T22:06:59.274Z,74.56
2022-11-18T22:09:31.421Z,74.89
2022-11-18T22:12:02.649Z,75.52
2022-11-18T22:14:30.338Z,75.46
2022-11-18T22:16:58.058Z,75.66
2022-11-18T22:19:25.781Z,75.78
2022-11-18T22:21:53.426Z,75.09
2022-11-18T22:24:21.168Z,75.09
2022-11-18T22:26:48.846Z,74.91
2022-11-18T22:29:16.797Z,75.16
2022-11-18T22:31:44.645Z,75.57
2022-11-18T22:34:12.333Z,75.69
2022-11-18T22:36:40.174Z,75.54
2022-11-18T22:39:07.827Z,75.95
2022-11-18T22:41:54.114Z,76.27
2022-11-18T22:44:21.751Z,76.72
2022-11-18T22:46:49.390Z,76.71
2022-11-18T22:49:17.594Z,76.38
2022-11-18T22:51:45.553Z,76.29
2022-11-18T22:57:00.827Z,76.40
2022-11-18T22:59:28.464Z,76.11
2022-11-18T23:01:56.138Z,76.15
2022-11-18T23:04:23.948Z,75.95
2022-11-18T23:06:51.579Z,75.28
2022-11-18T23:09:19.523Z,75.38
2022-11-18T23:12:06.241Z,75.42
2022-11-18T23:14:34.140Z,75.02
2022-11-18T23:17:01.833Z,75.15
2022-11-18T23:19:29.527Z,75.14
2022-11-18T23:21:57.247Z,75.33
2022-11-18T23:24:25.478Z,75.29
2022-11-18T23:26:53.243Z,75.32
2022-11-18T23:29:21.385Z,75.47
2022-11-18T23:31:49.369Z,75.70
2022-11-18T23:34:17.110Z,76.18
2022-11-18T23:36:44.741Z,77.02
2022-11-18T23:39:13.417Z,77.48
2022-11-18T23:41:41.211Z,77.01
2022-11-18T23:44:08.921Z,76.75
2022-11-18T23:46:36.561Z,76.46
2022-11-18T23:49:08.788Z,75.76
2022-11-18T23:51:36.555Z,75.55
2022-11-18T23:54:04.396Z,75.65
